Погода Маласашетана неделю

Минас-Жерайс, Бразилия

17 - 23 июня
  • 17июня
    Сегодня
    +14°
    +25°
    Небольшая облачность
    ВремяПогодаТемператураВлажностьДавлениеВетер, м/сВероятность осадков
    00:00Небольшая облачность+16°C94 %704 мм3.0 м/с4 %
    03:00Облачно с прояснениями+15°C97 %704 мм2.2 м/с5 %
    06:00Облачно с прояснениями+15°C97 %704 мм1.1 м/с2 %
    09:00Небольшая облачность+19°C78 %706 мм0.7 м/с17 %
    12:00Практически безоблачно+23°C53 %705 мм1.6 м/с11 %
    15:00Небольшая облачность+24°C50 %704 мм2.9 м/с3 %
    18:00Ясно и безоблачно+18°C67 %703 мм2.4 м/с5 %
    21:00Ясно и безоблачно+18°C77 %704 мм3.0 м/с5 %
  • 18июня
    Вторник
    +13°
    +27°
    Практически безоблачно
    ВремяПогодаТемператураВлажностьДавлениеВетер, м/сВероятность осадков
    00:00Ясно и безоблачно+16°C85 %703 мм2.9 м/с5 %
    03:00Ясно и безоблачно+14°C92 %702 мм2.2 м/с3 %
    06:00Облачно с прояснениями+14°C96 %703 мм2.0 м/с5 %
    09:00Ясно и безоблачно+19°C77 %705 мм1.7 м/с3 %
    12:00Ясно и безоблачно+25°C50 %704 мм1.8 м/с4 %
    15:00Практически безоблачно+27°C40 %703 мм2.4 м/с3 %
    18:00Практически безоблачно+20°C62 %703 мм3.2 м/с3 %
    21:00Практически безоблачно+20°C70 %704 мм3.2 м/с2 %
  • 19июня
    Среда
    +13°
    +26°
    Небольшая облачность
    ВремяПогодаТемператураВлажностьДавлениеВетер, м/сВероятность осадков
    00:00Ясно и безоблачно+16°C85 %703 мм4.1 м/с3 %
    03:00Ясно и безоблачно+15°C95 %703 мм2.5 м/с5 %
    06:00Практически безоблачно+14°C96 %703 мм1.0 м/с3 %
    09:00Ясно и безоблачно+20°C78 %706 мм1.3 м/с4 %
    12:00Практически безоблачно+25°C56 %706 мм2.7 м/с4 %
    15:00Небольшая облачность+26°C46 %704 мм2.6 м/с5 %
    18:00Ясно и безоблачно+19°C57 %703 мм2.8 м/с5 %
    21:00Ясно и безоблачно+19°C65 %704 мм2.7 м/с7 %
  • 20июня
    Четверг
    +15°
    +26°
    Небольшая облачность
    ВремяПогодаТемператураВлажностьДавлениеВетер, м/сВероятность осадков
    00:00Ясно и безоблачно+16°C74 %704 мм3.5 м/с11 %
    03:00Ясно и безоблачно+15°C92 %703 мм1.9 м/с14 %
    06:00Ясно и безоблачно+14°C95 %703 мм0.9 м/с15 %
    09:00Практически безоблачно+21°C77 %706 мм1.4 м/с6 %
    12:00Практически безоблачно+24°C56 %705 мм2.1 м/с13 %
    15:00Небольшая облачность+25°C49 %704 мм2.5 м/с7 %
    18:00Ясно и безоблачно+20°C69 %703 мм3.0 м/с6 %
    21:00Практически безоблачно+19°C87 %705 мм3.7 м/с16 %
  • 21июня
    Пятница
    +14°
    +26°
    Облачно с прояснениями
    ВремяПогодаТемператураВлажностьДавлениеВетер, м/сВероятность осадков
    00:00Облачно с прояснениями+16°C94 %705 мм4.1 м/с13 %
    03:00Пасмурно, сплошная облачность+16°C96 %704 мм3.0 м/с19 %
    06:00Небольшая облачность+15°C97 %704 мм1.6 м/с15 %
    09:00Ясно и безоблачно+20°C75 %706 мм2.0 м/с18 %
    12:00Практически безоблачно+24°C50 %706 мм3.1 м/с20 %
    15:00Облачно с прояснениями+25°C44 %704 мм3.3 м/с21 %
    18:00Ясно и безоблачно+19°C68 %704 мм3.5 м/с22 %
    21:00Небольшая облачность+19°C82 %705 мм4.4 м/с21 %
Мы используем cookies
Соглашаюсь